createdAt,value
2023-10-20T00:01:18.232Z,4.46
2023-10-20T00:03:48.574Z,4.46
2023-10-20T00:06:18.836Z,4.43
2023-10-20T00:08:49.127Z,4.44
2023-10-20T00:11:19.543Z,4.42
2023-10-20T00:13:49.923Z,4.40
2023-10-20T00:16:30.802Z,4.41
2023-10-20T00:19:04.073Z,4.43
2023-10-20T00:21:34.390Z,4.40
2023-10-20T00:24:05.226Z,4.38
2023-10-20T00:26:35.970Z,4.39
2023-10-20T00:29:07.354Z,4.36
2023-10-20T00:31:37.725Z,4.39
2023-10-20T00:34:08.085Z,4.39
2023-10-20T00:36:36.512Z,4.38
2023-10-20T00:39:05.289Z,4.34
2023-10-20T00:41:36.142Z,4.33
2023-10-20T00:44:05.067Z,4.33
2023-10-20T00:46:33.728Z,4.36
2023-10-20T00:49:04.650Z,4.35
2023-10-20T00:51:35.095Z,4.33
2023-10-20T00:54:07.683Z,4.34
2023-10-20T00:56:36.470Z,4.32
2023-10-20T00:59:06.779Z,4.33
2023-10-20T01:01:39.533Z,4.36
2023-10-20T01:04:09.134Z,4.35
2023-10-20T01:06:39.435Z,4.31
2023-10-20T01:09:11.652Z,4.32
2023-10-20T01:11:40.126Z,4.29
2023-10-20T01:14:07.532Z,4.34
2023-10-20T01:16:35.968Z,4.31
2023-10-20T01:19:04.391Z,4.34
2023-10-20T01:21:33.192Z,4.32
2023-10-20T01:24:03.544Z,4.27
2023-10-20T01:26:34.180Z,4.27
2023-10-20T01:29:07.027Z,4.27
2023-10-20T01:31:37.616Z,4.26
2023-10-20T01:34:07.530Z,4.29
2023-10-20T01:36:38.642Z,4.22
2023-10-20T01:39:09.734Z,4.22
2023-10-20T01:41:40.164Z,4.25
2023-10-20T01:44:10.255Z,4.25
2023-10-20T01:46:43.658Z,4.24
2023-10-20T01:49:13.941Z,4.23
2023-10-20T01:51:44.206Z,4.24
2023-10-20T01:54:14.484Z,4.26
2023-10-20T01:56:45.362Z,4.29
2023-10-20T01:59:16.930Z,4.26
2023-10-20T02:01:47.306Z,4.30
2023-10-20T02:04:17.597Z,4.29
2023-10-20T02:06:48.573Z,4.31
2023-10-20T02:09:17.416Z,4.26
2023-10-20T02:11:47.518Z,4.33
2023-10-20T02:14:17.754Z,4.31
2023-10-20T02:16:47.886Z,4.30
2023-10-20T02:19:18.528Z,4.30
2023-10-20T02:21:48.736Z,4.33
2023-10-20T02:24:18.992Z,4.31
2023-10-20T02:26:49.601Z,4.34
2023-10-20T02:29:19.405Z,4.33
2023-10-20T02:31:49.677Z,4.32
2023-10-20T02:34:19.442Z,4.33
2023-10-20T02:36:50.815Z,4.38
2023-10-20T02:39:21.598Z,4.35
2023-10-20T02:41:51.818Z,4.36
2023-10-20T02:44:24.171Z,4.31
2023-10-20T02:46:54.626Z,4.37
2023-10-20T02:49:24.352Z,4.35
2023-10-20T02:51:54.548Z,4.33
2023-10-20T02:54:24.469Z,4.33
2023-10-20T02:56:57.785Z,4.38
2023-10-20T02:59:28.115Z,4.36
2023-10-20T03:01:58.078Z,4.34
2023-10-20T03:04:28.137Z,4.34
2023-10-20T03:06:58.141Z,4.34
2023-10-20T03:09:27.913Z,4.36
2023-10-20T03:11:57.787Z,4.36
2023-10-20T03:14:27.671Z,4.34
2023-10-20T03:16:58.059Z,4.35
2023-10-20T03:19:28.169Z,4.38
2023-10-20T03:21:59.367Z,4.39
2023-10-20T03:24:30.422Z,4.36
2023-10-20T03:27:00.229Z,4.36
2023-10-20T03:29:30.277Z,4.40
2023-10-20T03:32:00.286Z,4.43
2023-10-20T03:34:36.015Z,4.44
2023-10-20T03:37:04.088Z,4.42
2023-10-20T03:39:34.769Z,4.43
2023-10-20T03:42:03.844Z,4.42
2023-10-20T03:44:34.903Z,4.42
2023-10-20T03:47:07.036Z,4.37
2023-10-20T03:49:37.536Z,4.37
2023-10-20T03:52:13.607Z,4.36
2023-10-20T03:54:43.647Z,4.40
2023-10-20T03:57:17.169Z,4.36
2023-10-20T03:59:48.295Z,4.34
2023-10-20T04:02:18.482Z,4.28
2023-10-20T04:04:48.390Z,4.31
2023-10-20T04:07:18.360Z,4.21
2023-10-20T04:09:48.389Z,4.15
2023-10-20T04:12:18.625Z,4.12
2023-10-20T04:14:48.554Z,4.18
2023-10-20T04:17:18.575Z,4.16
2023-10-20T04:19:48.533Z,4.20
2023-10-20T04:22:18.688Z,4.14
2023-10-20T04:24:48.655Z,4.15
2023-10-20T04:27:39.718Z,4.14
2023-10-20T04:30:28.693Z,4.06
2023-10-20T04:33:17.533Z,4.09
2023-10-20T04:36:06.106Z,4.09
2023-10-20T04:38:54.533Z,4.06
2023-10-20T04:41:43.644Z,4.01
2023-10-20T04:44:16.075Z,3.97
2023-10-20T04:46:59.752Z,3.97
2023-10-20T04:49:40.073Z,4.01
2023-10-20T04:52:29.964Z,4.02
2023-10-20T04:55:09.127Z,4.00
2023-10-20T04:57:59.421Z,3.99
2023-10-20T05:00:38.862Z,3.98
2023-10-20T05:03:31.080Z,3.96
2023-10-20T05:06:25.050Z,3.89
2023-10-20T05:08:55.447Z,3.89
2023-10-20T05:11:23.986Z,3.88
2023-10-20T05:13:52.354Z,3.83
2023-10-20T05:16:23.227Z,3.82
2023-10-20T05:18:52.127Z,3.86
2023-10-20T05:21:20.415Z,3.87
2023-10-20T05:23:51.261Z,3.85
2023-10-20T05:26:22.214Z,3.83
2023-10-20T05:28:52.544Z,3.78
2023-10-20T05:31:28.854Z,3.80
2023-10-20T05:33:59.147Z,3.77
2023-10-20T05:36:29.371Z,3.85
2023-10-20T05:38:59.712Z,3.83
2023-10-20T05:41:31.418Z,3.78
2023-10-20T05:44:02.778Z,3.84
2023-10-20T05:46:33.569Z,3.76
2023-10-20T05:49:03.880Z,3.74
2023-10-20T05:51:34.567Z,3.75
2023-10-20T05:54:05.047Z,3.78
2023-10-20T05:56:35.343Z,3.79
2023-10-20T05:59:05.807Z,3.74
2023-10-20T06:01:36.172Z,3.71
2023-10-20T06:04:06.633Z,3.72
2023-10-20T06:06:36.955Z,3.70
2023-10-20T06:09:10.649Z,3.67
2023-10-20T06:11:40.952Z,3.65
2023-10-20T06:14:12.002Z,3.67
2023-10-20T06:16:43.612Z,3.64
2023-10-20T06:19:15.007Z,3.67
2023-10-20T06:21:45.375Z,3.67
2023-10-20T06:24:15.858Z,3.65
2023-10-20T06:26:46.767Z,3.70
2023-10-20T06:29:29.724Z,3.65
2023-10-20T06:32:11.966Z,3.60
2023-10-20T06:34:42.994Z,3.62
2023-10-20T06:37:48.683Z,3.59
2023-10-20T06:40:19.093Z,3.60
2023-10-20T06:42:49.377Z,3.57
2023-10-20T06:45:17.958Z,3.58
2023-10-20T06:47:46.346Z,3.61
2023-10-20T06:50:17.862Z,3.58
2023-10-20T06:52:46.031Z,3.55
2023-10-20T06:57:47.851Z,3.56
2023-10-20T07:00:18.750Z,3.57
2023-10-20T07:02:49.992Z,3.58
2023-10-20T07:05:21.856Z,3.61
2023-10-20T07:07:52.255Z,3.57
2023-10-20T07:10:23.680Z,3.50
2023-10-20T07:12:54.088Z,3.51
2023-10-20T07:15:24.329Z,3.50
2023-10-20T07:17:54.606Z,3.48
2023-10-20T07:20:26.233Z,3.50
2023-10-20T07:22:56.486Z,3.49
2023-10-20T07:25:28.232Z,3.45
2023-10-20T07:27:58.712Z,3.47
2023-10-20T07:30:32.163Z,3.49
2023-10-20T07:35:34.607Z,3.51
2023-10-20T07:38:05.619Z,3.51
2023-10-20T07:40:39.151Z,3.52
2023-10-20T07:43:09.387Z,3.44
2023-10-20T07:45:44.519Z,3.51
2023-10-20T07:48:15.624Z,3.44
2023-10-20T07:50:47.315Z,3.42
2023-10-20T07:53:17.726Z,3.41
2023-10-20T07:55:48.069Z,3.46
2023-10-20T07:58:18.313Z,3.46
2023-10-20T08:00:48.717Z,3.47
2023-10-20T08:03:19.300Z,3.44
2023-10-20T08:05:49.924Z,3.45
2023-10-20T08:08:20.385Z,3.39
2023-10-20T08:10:51.011Z,3.44
2023-10-20T08:13:23.307Z,3.40
2023-10-20T08:15:53.653Z,3.43
2023-10-20T08:18:23.961Z,3.40
2023-10-20T08:21:09.260Z,3.39
2023-10-20T08:23:40.323Z,3.35
2023-10-20T08:26:21.106Z,3.36
2023-10-20T08:28:50.873Z,3.37
2023-10-20T08:31:19.072Z,3.37
2023-10-20T08:33:47.308Z,3.39
2023-10-20T08:36:24.203Z,3.43
2023-10-20T08:38:54.566Z,3.37
2023-10-20T08:41:25.345Z,3.37
2023-10-20T08:43:57.542Z,3.40
2023-10-20T08:46:28.710Z,3.39
2023-10-20T08:48:59.755Z,3.39
2023-10-20T08:51:28.100Z,3.40
2023-10-20T08:53:58.138Z,3.38
2023-10-20T08:56:29.048Z,3.37
2023-10-20T08:58:58.355Z,3.40
2023-10-20T09:01:30.197Z,3.35
2023-10-20T09:04:02.543Z,3.37
2023-10-20T09:06:31.757Z,3.35
2023-10-20T09:09:07.296Z,3.37
2023-10-20T09:11:36.837Z,3.36
2023-10-20T09:14:08.458Z,3.36
2023-10-20T09:16:39.023Z,3.39
2023-10-20T09:19:13.323Z,3.37
2023-10-20T09:21:47.831Z,3.37
2023-10-20T09:24:16.383Z,3.35
2023-10-20T09:26:46.629Z,3.38
2023-10-20T09:29:18.521Z,3.39
2023-10-20T09:31:47.525Z,3.37
2023-10-20T09:34:17.153Z,3.37
2023-10-20T09:36:54.157Z,3.35
2023-10-20T09:39:45.301Z,3.38
2023-10-20T09:42:27.128Z,3.42
2023-10-20T09:45:12.832Z,3.44
2023-10-20T09:47:48.214Z,3.38
2023-10-20T09:50:21.106Z,3.37
2023-10-20T09:52:54.599Z,3.44
2023-10-20T09:55:23.610Z,3.35
2023-10-20T09:57:52.045Z,3.35
2023-10-20T10:00:36.342Z,3.35
2023-10-20T10:03:06.390Z,3.28
2023-10-20T10:05:42.188Z,3.32
2023-10-20T10:08:12.507Z,3.35
2023-10-20T10:10:42.729Z,3.33
2023-10-20T10:13:13.229Z,3.34
2023-10-20T10:15:48.376Z,3.21
2023-10-20T10:18:20.153Z,3.25
2023-10-20T10:20:52.008Z,3.20
2023-10-20T10:23:29.477Z,3.20
2023-10-20T10:26:00.126Z,3.25
2023-10-20T10:28:32.114Z,3.26
2023-10-20T10:31:02.901Z,3.24
2023-10-20T10:33:33.829Z,3.16
2023-10-20T10:36:11.574Z,3.15
2023-10-20T10:38:45.780Z,3.10
2023-10-20T10:41:15.936Z,3.13
2023-10-20T10:43:46.230Z,3.14
2023-10-20T10:46:16.042Z,3.12
2023-10-20T10:48:46.804Z,3.11
2023-10-20T10:51:21.425Z,3.14
2023-10-20T10:53:49.919Z,3.15
2023-10-20T10:56:19.273Z,3.13
2023-10-20T10:58:51.694Z,3.16
2023-10-20T11:01:22.393Z,3.22
2023-10-20T11:03:54.148Z,3.23
2023-10-20T11:06:22.942Z,3.22
2023-10-20T11:08:53.406Z,3.19
2023-10-20T11:11:28.910Z,3.18
2023-10-20T11:13:58.309Z,3.14
2023-10-20T11:16:28.085Z,3.19
2023-10-20T11:18:58.250Z,3.20
2023-10-20T11:21:31.806Z,3.26
2023-10-20T11:24:00.991Z,3.18
2023-10-20T11:26:29.452Z,3.17
2023-10-20T11:28:59.264Z,3.26
2023-10-20T11:31:33.058Z,3.23
2023-10-20T11:34:03.736Z,3.19
2023-10-20T11:36:33.701Z,3.18
2023-10-20T11:39:03.659Z,3.15
2023-10-20T11:41:33.900Z,3.17
2023-10-20T11:44:04.320Z,3.22
2023-10-20T11:46:32.386Z,3.21
2023-10-20T11:49:00.855Z,3.27
2023-10-20T11:51:30.462Z,3.26
2023-10-20T11:54:00.434Z,3.20
2023-10-20T11:56:31.155Z,3.16
2023-10-20T11:59:01.685Z,3.20
2023-10-20T12:01:33.956Z,3.17
2023-10-20T12:04:07.530Z,3.25
2023-10-20T12:06:37.807Z,3.20
2023-10-20T12:09:14.581Z,3.25
2023-10-20T12:11:42.546Z,3.34
2023-10-20T12:14:10.795Z,3.37
2023-10-20T12:16:39.322Z,3.40
2023-10-20T12:19:07.652Z,3.35
2023-10-20T12:21:36.212Z,3.37
2023-10-20T12:24:05.759Z,3.36
2023-10-20T12:26:36.066Z,3.37
2023-10-20T12:29:06.457Z,3.42
2023-10-20T12:31:37.038Z,3.36
2023-10-20T12:34:08.537Z,3.39
2023-10-20T12:36:40.497Z,3.37
2023-10-20T12:39:17.772Z,3.42
2023-10-20T12:41:51.571Z,3.39
2023-10-20T12:44:21.790Z,3.34
2023-10-20T12:46:51.953Z,3.34
2023-10-20T12:49:22.404Z,3.28
2023-10-20T12:51:52.490Z,3.26
2023-10-20T12:54:22.096Z,3.25
2023-10-20T12:56:52.350Z,3.20
2023-10-20T12:59:22.082Z,3.21
2023-10-20T13:01:52.157Z,3.19
2023-10-20T13:04:23.242Z,3.15
2023-10-20T13:07:00.678Z,3.22
2023-10-20T13:09:31.572Z,3.14
2023-10-20T13:12:01.828Z,3.12
2023-10-20T13:14:31.970Z,3.10
2023-10-20T13:17:01.924Z,3.14
2023-10-20T13:19:31.746Z,3.09
2023-10-20T13:22:01.917Z,3.06
2023-10-20T13:24:34.092Z,3.10
2023-10-20T13:27:04.614Z,3.10
2023-10-20T13:29:34.334Z,3.12
2023-10-20T13:32:04.335Z,3.10
2023-10-20T13:34:35.374Z,3.11
2023-10-20T13:37:06.710Z,3.08
2023-10-20T13:39:36.807Z,3.12
2023-10-20T13:42:08.019Z,3.08
2023-10-20T13:44:38.354Z,3.00
2023-10-20T13:47:08.548Z,3.02
2023-10-20T13:49:38.450Z,3.02
2023-10-20T13:52:08.372Z,3.02
2023-10-20T13:54:38.308Z,3.08
2023-10-20T13:57:09.135Z,3.06
2023-10-20T13:59:38.353Z,3.06
2023-10-20T14:02:08.312Z,2.97
2023-10-20T14:04:38.272Z,2.90
2023-10-20T14:07:08.421Z,2.92
2023-10-20T14:09:38.625Z,2.92
2023-10-20T14:12:08.516Z,2.87
2023-10-20T14:14:38.520Z,2.88
2023-10-20T14:17:08.491Z,2.86
2023-10-20T14:19:38.403Z,2.90
2023-10-20T14:22:08.375Z,2.88
2023-10-20T14:24:38.319Z,2.84
2023-10-20T14:27:11.088Z,2.86
2023-10-20T14:29:41.726Z,2.87
2023-10-20T14:32:11.132Z,2.85
2023-10-20T14:34:41.167Z,2.83
2023-10-20T14:37:11.919Z,2.83
2023-10-20T14:39:42.789Z,2.83
2023-10-20T14:42:11.340Z,2.86
2023-10-20T14:44:41.268Z,2.82
2023-10-20T14:47:11.369Z,2.79
2023-10-20T14:49:42.863Z,2.77
2023-10-20T14:52:15.909Z,2.78
2023-10-20T14:54:44.949Z,2.76
2023-10-20T14:57:14.224Z,2.69
2023-10-20T14:59:44.057Z,2.69
2023-10-20T15:02:12.414Z,2.69
2023-10-20T15:04:40.940Z,2.71
2023-10-20T15:07:09.290Z,2.70
2023-10-20T15:09:38.306Z,2.67
2023-10-20T15:12:06.526Z,2.62
2023-10-20T15:14:34.533Z,2.64
2023-10-20T15:17:03.298Z,2.62
2023-10-20T15:19:31.451Z,2.60
2023-10-20T15:21:59.849Z,2.55
2023-10-20T15:24:28.425Z,2.55
2023-10-20T15:27:00.370Z,2.52
2023-10-20T15:29:28.136Z,2.54
2023-10-20T15:31:56.595Z,2.49
2023-10-20T15:34:24.976Z,2.53
2023-10-20T15:36:53.460Z,2.53
2023-10-20T15:39:40.327Z,2.53
2023-10-20T15:42:14.016Z,2.51
2023-10-20T15:44:43.932Z,2.54
2023-10-20T15:47:14.024Z,2.51
2023-10-20T15:49:44.091Z,2.50
2023-10-20T15:52:12.221Z,2.51
2023-10-20T15:54:42.369Z,2.45
2023-10-20T15:57:12.325Z,2.49
2023-10-20T15:59:42.231Z,2.46
2023-10-20T16:02:12.178Z,2.48
2023-10-20T16:04:42.196Z,2.45
2023-10-20T16:07:12.528Z,2.44
2023-10-20T16:09:42.452Z,2.45
2023-10-20T16:12:12.255Z,2.45
2023-10-20T16:14:45.996Z,2.43
2023-10-20T16:17:13.732Z,2.52
2023-10-20T16:19:44.463Z,2.48
2023-10-20T16:22:14.662Z,2.51
2023-10-20T16:24:44.609Z,2.49
2023-10-20T16:27:19.045Z,2.50
2023-10-20T16:29:48.685Z,2.51
2023-10-20T16:32:19.200Z,2.51
2023-10-20T16:34:49.435Z,2.49
2023-10-20T16:37:19.478Z,2.51
2023-10-20T16:39:49.736Z,2.51
2023-10-20T16:42:19.613Z,2.56
2023-10-20T16:44:49.310Z,2.55
2023-10-20T16:47:19.326Z,2.57
2023-10-20T16:49:52.775Z,2.55
2023-10-20T16:52:22.739Z,2.55
2023-10-20T16:54:52.856Z,2.56
2023-10-20T16:57:23.560Z,2.56
2023-10-20T16:59:54.686Z,2.58
2023-10-20T17:02:24.811Z,2.61
2023-10-20T17:04:54.441Z,2.61
2023-10-20T17:07:24.453Z,2.64
2023-10-20T17:09:54.458Z,2.67
2023-10-20T17:12:24.264Z,2.69
2023-10-20T17:14:54.461Z,2.68
2023-10-20T17:17:24.575Z,2.70
2023-10-20T17:19:54.857Z,2.72
2023-10-20T17:22:25.114Z,2.78
2023-10-20T17:24:55.014Z,2.78
2023-10-20T17:27:25.068Z,2.84
2023-10-20T17:29:55.616Z,2.87
2023-10-20T17:32:26.028Z,2.90
2023-10-20T17:34:56.242Z,2.90
2023-10-20T17:37:26.093Z,2.90
2023-10-20T17:39:56.236Z,2.91
2023-10-20T17:42:26.973Z,2.96
2023-10-20T17:44:56.590Z,2.93
2023-10-20T17:47:27.728Z,2.96
2023-10-20T17:49:58.043Z,2.97
2023-10-20T17:52:26.523Z,3.00
2023-10-20T17:54:54.836Z,3.02
2023-10-20T17:57:23.778Z,3.08
2023-10-20T17:59:51.539Z,3.09
2023-10-20T18:02:19.864Z,3.10
2023-10-20T18:04:49.463Z,3.13
2023-10-20T18:07:17.179Z,3.14
2023-10-20T18:09:45.914Z,3.16
2023-10-20T18:12:13.622Z,3.18
2023-10-20T18:14:42.755Z,3.20
2023-10-20T18:17:12.191Z,3.25
2023-10-20T18:19:41.938Z,3.25
2023-10-20T18:22:10.231Z,3.32
2023-10-20T18:24:38.711Z,3.32
2023-10-20T18:27:07.123Z,3.36
2023-10-20T18:29:36.425Z,3.36
2023-10-20T18:32:04.371Z,3.37
2023-10-20T18:34:32.281Z,3.39
2023-10-20T18:37:00.780Z,3.43
2023-10-20T18:39:29.457Z,3.41
2023-10-20T18:41:57.797Z,3.42
2023-10-20T18:44:25.914Z,3.43
2023-10-20T18:46:54.287Z,3.47
2023-10-20T18:49:23.740Z,3.44
2023-10-20T18:56:01.145Z,3.46
2023-10-20T18:58:31.359Z,3.47
2023-10-20T19:01:02.103Z,3.51
2023-10-20T19:03:33.541Z,3.53
2023-10-20T19:06:04.159Z,3.56
2023-10-20T19:08:34.736Z,3.60
2023-10-20T19:11:06.092Z,3.59
2023-10-20T19:13:36.470Z,3.57
2023-10-20T19:16:06.932Z,3.58
2023-10-20T19:18:37.387Z,3.60
2023-10-20T19:21:12.460Z,3.60
2023-10-20T19:23:42.151Z,3.62
2023-10-20T19:26:12.935Z,3.64
2023-10-20T19:28:43.810Z,3.65
2023-10-20T19:31:15.562Z,3.63
2023-10-20T19:33:46.051Z,3.61
2023-10-20T19:36:16.649Z,3.65
2023-10-20T19:38:44.659Z,3.65
2023-10-20T19:41:15.506Z,3.64
2023-10-20T19:43:44.711Z,3.64
2023-10-20T19:46:14.981Z,3.63
2023-10-20T19:48:46.515Z,3.68
2023-10-20T19:51:16.911Z,3.64
2023-10-20T19:53:47.258Z,3.63
2023-10-20T19:56:17.153Z,3.65
2023-10-20T19:58:47.188Z,3.69
2023-10-20T20:01:17.207Z,3.62
2023-10-20T20:03:47.808Z,3.61
2023-10-20T20:06:18.479Z,3.63
2023-10-20T20:08:48.515Z,3.66
2023-10-20T20:11:16.960Z,3.67
2023-10-20T20:13:45.154Z,3.70
2023-10-20T20:16:18.143Z,3.66
2023-10-20T20:18:48.652Z,3.67
2023-10-20T20:21:18.881Z,3.70
2023-10-20T20:23:48.729Z,3.75
2023-10-20T20:26:20.703Z,3.72
2023-10-20T20:28:50.978Z,3.74
2023-10-20T20:31:21.078Z,3.74
2023-10-20T20:33:51.161Z,3.75
2023-10-20T20:36:21.215Z,3.73
2023-10-20T20:38:51.496Z,3.70
2023-10-20T20:41:21.608Z,3.73
2023-10-20T20:43:51.441Z,3.72
2023-10-20T20:46:21.923Z,3.74
2023-10-20T20:48:54.312Z,3.74
2023-10-20T20:51:23.944Z,3.71
2023-10-20T20:53:53.691Z,3.72
2023-10-20T20:56:24.130Z,3.77
2023-10-20T20:58:56.749Z,3.78
2023-10-20T21:01:25.345Z,3.77
2023-10-20T21:04:02.052Z,3.80
2023-10-20T21:06:35.730Z,3.79
2023-10-20T21:09:06.636Z,3.78
2023-10-20T21:11:37.792Z,3.83
2023-10-20T21:14:08.155Z,3.81
2023-10-20T21:16:39.521Z,3.82
2023-10-20T21:19:09.698Z,3.84
2023-10-20T21:24:10.345Z,3.84
2023-10-20T21:26:41.420Z,3.87
2023-10-20T21:29:11.861Z,3.86
2023-10-20T21:31:42.347Z,3.86
2023-10-20T21:34:12.733Z,3.87
2023-10-20T21:36:43.503Z,3.85
2023-10-20T21:39:14.203Z,3.86
2023-10-20T21:41:44.579Z,3.87
2023-10-20T21:44:14.851Z,3.89
2023-10-20T21:46:45.161Z,3.92
2023-10-20T21:49:16.191Z,3.94
2023-10-20T21:51:46.468Z,3.97
2023-10-20T21:54:16.930Z,3.96
2023-10-20T21:56:47.317Z,3.98
2023-10-20T21:59:18.065Z,3.96
2023-10-20T22:01:58.080Z,3.96
2023-10-20T22:04:36.467Z,3.99
2023-10-20T22:07:05.112Z,3.98
2023-10-20T22:09:46.428Z,4.00
2023-10-20T22:12:23.761Z,4.04
2023-10-20T22:14:52.276Z,4.03
2023-10-20T22:17:20.606Z,4.03
2023-10-20T22:19:48.849Z,4.00
2023-10-20T22:22:17.546Z,4.01
2023-10-20T22:24:45.822Z,3.98
2023-10-20T22:27:14.201Z,4.02
2023-10-20T22:29:42.692Z,4.03
2023-10-20T22:32:11.155Z,4.03
2023-10-20T22:34:39.925Z,4.03
2023-10-20T22:37:07.810Z,4.02
2023-10-20T22:39:36.588Z,4.03
2023-10-20T22:42:05.103Z,4.05
2023-10-20T22:44:33.092Z,4.05
2023-10-20T22:47:01.498Z,4.04
2023-10-20T22:49:29.827Z,4.05
2023-10-20T22:51:58.348Z,4.04
2023-10-20T22:54:26.867Z,4.05
2023-10-20T22:56:55.262Z,4.05
2023-10-20T22:59:23.623Z,4.08
2023-10-20T23:01:52.042Z,4.07
2023-10-20T23:04:20.691Z,4.07
2023-10-20T23:06:50.906Z,4.11
2023-10-20T23:09:21.236Z,4.10
2023-10-20T23:11:49.132Z,4.12
2023-10-20T23:14:18.108Z,4.12
2023-10-20T23:16:45.808Z,4.12
2023-10-20T23:19:14.543Z,4.12
2023-10-20T23:21:42.552Z,4.12
2023-10-20T23:24:11.709Z,4.13
2023-10-20T23:26:39.512Z,4.15
2023-10-20T23:29:07.734Z,4.18
2023-10-20T23:31:36.145Z,4.18
2023-10-20T23:34:04.670Z,4.15
2023-10-20T23:36:32.999Z,4.14
2023-10-20T23:39:01.477Z,4.16
2023-10-20T23:41:29.826Z,4.14
2023-10-20T23:43:58.305Z,4.15
2023-10-20T23:46:26.768Z,4.18
2023-10-20T23:48:55.135Z,4.19
2023-10-20T23:51:23.622Z,4.22
2023-10-20T23:53:51.954Z,4.21
2023-10-20T23:56:20.367Z,4.21
2023-10-20T23:58:48.903Z,4.21
